sensor_id;sensor_type;location;lat;lon;timestamp;temperature;humidity
22112;DHT22;11222;50.872;4.312;2023-06-22T00:01:53;21.80;99.90
22112;DHT22;11222;50.872;4.312;2023-06-22T00:04:19;21.90;99.90
22112;DHT22;11222;50.872;4.312;2023-06-22T00:06:44;21.90;99.90
22112;DHT22;11222;50.872;4.312;2023-06-22T00:09:10;22.00;99.90
22112;DHT22;11222;50.872;4.312;2023-06-22T00:11:39;22.10;99.90
22112;DHT22;11222;50.872;4.312;2023-06-22T00:14:05;22.10;99.90
22112;DHT22;11222;50.872;4.312;2023-06-22T00:16:34;22.20;99.90
22112;DHT22;11222;50.872;4.312;2023-06-22T00:19:00;22.20;99.90
22112;DHT22;11222;50.872;4.312;2023-06-22T00:21:27;22.10;99.90
22112;DHT22;11222;50.872;4.312;2023-06-22T00:23:53;22.10;99.90
22112;DHT22;11222;50.872;4.312;2023-06-22T00:26:20;22.10;99.90
22112;DHT22;11222;50.872;4.312;2023-06-22T00:28:46;22.10;99.90
22112;DHT22;11222;50.872;4.312;2023-06-22T00:31:12;22.00;99.90
22112;DHT22;11222;50.872;4.312;2023-06-22T00:33:38;22.00;99.90
22112;DHT22;11222;50.872;4.312;2023-06-22T00:36:04;22.00;99.90
22112;DHT22;11222;50.872;4.312;2023-06-22T00:38:30;22.00;99.90
22112;DHT22;11222;50.872;4.312;2023-06-22T00:40:55;21.90;99.90
22112;DHT22;11222;50.872;4.312;2023-06-22T00:43:21;21.90;99.90
22112;DHT22;11222;50.872;4.312;2023-06-22T00:45:47;21.90;99.90
22112;DHT22;11222;50.872;4.312;2023-06-22T00:48:13;21.90;99.90
22112;DHT22;11222;50.872;4.312;2023-06-22T00:50:40;21.90;99.90
22112;DHT22;11222;50.872;4.312;2023-06-22T00:53:08;21.90;99.90
22112;DHT22;11222;50.872;4.312;2023-06-22T00:55:52;21.90;99.90
22112;DHT22;11222;50.872;4.312;2023-06-22T00:58:18;22.00;99.90
22112;DHT22;11222;50.872;4.312;2023-06-22T01:00:47;21.90;99.90
22112;DHT22;11222;50.872;4.312;2023-06-22T01:03:13;22.00;99.90
22112;DHT22;11222;50.872;4.312;2023-06-22T01:05:39;22.00;99.90
22112;DHT22;11222;50.872;4.312;2023-06-22T01:08:31;22.00;99.90
22112;DHT22;11222;50.872;4.312;2023-06-22T01:11:10;22.00;99.90
22112;DHT22;11222;50.872;4.312;2023-06-22T01:14:10;22.00;99.90
22112;DHT22;11222;50.872;4.312;2023-06-22T01:16:41;22.00;99.90
22112;DHT22;11222;50.872;4.312;2023-06-22T01:21:44;21.90;99.90
22112;DHT22;11222;50.872;4.312;2023-06-22T01:24:15;21.70;99.90
22112;DHT22;11222;50.872;4.312;2023-06-22T01:29:20;21.70;99.90
22112;DHT22;11222;50.872;4.312;2023-06-22T01:31:48;21.60;99.90
22112;DHT22;11222;50.872;4.312;2023-06-22T01:34:14;21.70;99.90
22112;DHT22;11222;50.872;4.312;2023-06-22T01:36:42;21.70;99.90
22112;DHT22;11222;50.872;4.312;2023-06-22T01:39:08;21.70;99.90
22112;DHT22;11222;50.872;4.312;2023-06-22T01:41:37;21.60;99.90
22112;DHT22;11222;50.872;4.312;2023-06-22T01:44:05;21.70;99.90
22112;DHT22;11222;50.872;4.312;2023-06-22T01:46:34;21.70;99.90
22112;DHT22;11222;50.872;4.312;2023-06-22T01:49:00;21.60;99.90
22112;DHT22;11222;50.872;4.312;2023-06-22T01:51:26;21.60;99.90
22112;DHT22;11222;50.872;4.312;2023-06-22T01:53:52;21.60;99.90
22112;DHT22;11222;50.872;4.312;2023-06-22T01:56:17;21.50;99.90
22112;DHT22;11222;50.872;4.312;2023-06-22T01:59:12;21.50;99.90
22112;DHT22;11222;50.872;4.312;2023-06-22T02:01:44;21.50;99.90
22112;DHT22;11222;50.872;4.312;2023-06-22T02:04:18;21.50;99.90
22112;DHT22;11222;50.872;4.312;2023-06-22T02:06:46;21.50;99.90
22112;DHT22;11222;50.872;4.312;2023-06-22T02:09:16;21.50;99.90
22112;DHT22;11222;50.872;4.312;2023-06-22T02:11:45;21.60;99.90
22112;DHT22;11222;50.872;4.312;2023-06-22T02:14:13;21.50;99.90
22112;DHT22;11222;50.872;4.312;2023-06-22T02:16:40;21.40;99.90
22112;DHT22;11222;50.872;4.312;2023-06-22T02:19:06;21.40;99.90
22112;DHT22;11222;50.872;4.312;2023-06-22T02:21:32;21.30;99.90
22112;DHT22;11222;50.872;4.312;2023-06-22T02:23:58;21.20;99.90
22112;DHT22;11222;50.872;4.312;2023-06-22T02:26:25;21.20;99.90
22112;DHT22;11222;50.872;4.312;2023-06-22T02:28:51;21.20;99.90
22112;DHT22;11222;50.872;4.312;2023-06-22T02:31:17;21.20;99.90
22112;DHT22;11222;50.872;4.312;2023-06-22T02:33:43;21.20;99.90
22112;DHT22;11222;50.872;4.312;2023-06-22T02:36:10;21.10;99.90
22112;DHT22;11222;50.872;4.312;2023-06-22T02:38:40;21.00;99.90
22112;DHT22;11222;50.872;4.312;2023-06-22T02:41:16;21.00;99.90
22112;DHT22;11222;50.872;4.312;2023-06-22T02:43:46;20.90;99.90
22112;DHT22;11222;50.872;4.312;2023-06-22T02:46:13;20.90;99.90
22112;DHT22;11222;50.872;4.312;2023-06-22T02:48:41;20.90;99.90
22112;DHT22;11222;50.872;4.312;2023-06-22T02:51:08;20.90;99.90
22112;DHT22;11222;50.872;4.312;2023-06-22T02:53:34;20.90;99.90
22112;DHT22;11222;50.872;4.312;2023-06-22T02:56:01;20.90;99.90
22112;DHT22;11222;50.872;4.312;2023-06-22T02:58:28;20.90;99.90
22112;DHT22;11222;50.872;4.312;2023-06-22T03:00:54;20.90;99.90
22112;DHT22;11222;50.872;4.312;2023-06-22T03:03:20;21.00;99.90
22112;DHT22;11222;50.872;4.312;2023-06-22T03:05:45;21.00;99.90
22112;DHT22;11222;50.872;4.312;2023-06-22T03:08:11;21.10;99.90
22112;DHT22;11222;50.872;4.312;2023-06-22T03:10:37;21.00;99.90
22112;DHT22;11222;50.872;4.312;2023-06-22T03:13:02;20.90;99.90
22112;DHT22;11222;50.872;4.312;2023-06-22T03:15:28;20.70;99.90
22112;DHT22;11222;50.872;4.312;2023-06-22T03:17:58;20.70;99.90
22112;DHT22;11222;50.872;4.312;2023-06-22T03:20:23;20.60;99.90
22112;DHT22;11222;50.872;4.312;2023-06-22T03:22:50;20.60;99.90
22112;DHT22;11222;50.872;4.312;2023-06-22T03:25:16;20.60;99.90
22112;DHT22;11222;50.872;4.312;2023-06-22T03:27:42;20.70;99.90
22112;DHT22;11222;50.872;4.312;2023-06-22T03:30:10;20.70;99.90
22112;DHT22;11222;50.872;4.312;2023-06-22T03:32:36;20.80;99.90
22112;DHT22;11222;50.872;4.312;2023-06-22T03:35:02;20.80;99.90
22112;DHT22;11222;50.872;4.312;2023-06-22T03:37:28;20.90;99.90
22112;DHT22;11222;50.872;4.312;2023-06-22T03:39:54;20.90;99.90
22112;DHT22;11222;50.872;4.312;2023-06-22T03:42:20;20.80;99.90
22112;DHT22;11222;50.872;4.312;2023-06-22T03:44:46;20.80;99.90
22112;DHT22;11222;50.872;4.312;2023-06-22T03:47:12;20.60;99.90
22112;DHT22;11222;50.872;4.312;2023-06-22T03:49:38;20.60;99.90
22112;DHT22;11222;50.872;4.312;2023-06-22T03:52:04;20.70;99.90
22112;DHT22;11222;50.872;4.312;2023-06-22T03:54:30;20.80;99.90
22112;DHT22;11222;50.872;4.312;2023-06-22T03:56:57;20.80;99.90
22112;DHT22;11222;50.872;4.312;2023-06-22T03:59:23;20.70;99.90
22112;DHT22;11222;50.872;4.312;2023-06-22T04:01:49;20.70;99.90
22112;DHT22;11222;50.872;4.312;2023-06-22T04:04:16;20.60;99.90
22112;DHT22;11222;50.872;4.312;2023-06-22T04:06:41;20.60;99.90
22112;DHT22;11222;50.872;4.312;2023-06-22T04:09:07;20.60;99.90
22112;DHT22;11222;50.872;4.312;2023-06-22T04:11:33;20.60;99.90
22112;DHT22;11222;50.872;4.312;2023-06-22T04:13:58;20.50;99.90
22112;DHT22;11222;50.872;4.312;2023-06-22T04:16:24;20.40;99.90
22112;DHT22;11222;50.872;4.312;2023-06-22T04:18:50;20.30;99.90
22112;DHT22;11222;50.872;4.312;2023-06-22T04:21:15;20.30;99.90
22112;DHT22;11222;50.872;4.312;2023-06-22T04:23:41;20.20;99.90
22112;DHT22;11222;50.872;4.312;2023-06-22T04:26:06;20.30;99.90
22112;DHT22;11222;50.872;4.312;2023-06-22T04:28:32;20.50;99.90
22112;DHT22;11222;50.872;4.312;2023-06-22T04:31:01;20.60;99.90
22112;DHT22;11222;50.872;4.312;2023-06-22T04:33:31;20.70;99.90
22112;DHT22;11222;50.872;4.312;2023-06-22T04:35:57;20.80;99.90
22112;DHT22;11222;50.872;4.312;2023-06-22T04:38:23;20.90;99.90
22112;DHT22;11222;50.872;4.312;2023-06-22T04:40:50;20.90;99.90
22112;DHT22;11222;50.872;4.312;2023-06-22T04:43:16;20.70;99.90
22112;DHT22;11222;50.872;4.312;2023-06-22T04:45:42;20.50;99.90
22112;DHT22;11222;50.872;4.312;2023-06-22T04:48:07;20.40;99.90
22112;DHT22;11222;50.872;4.312;2023-06-22T04:50:41;20.30;99.90
22112;DHT22;11222;50.872;4.312;2023-06-22T04:53:07;20.40;99.90
22112;DHT22;11222;50.872;4.312;2023-06-22T04:55:35;20.60;99.90
22112;DHT22;11222;50.872;4.312;2023-06-22T04:58:03;20.80;99.90
22112;DHT22;11222;50.872;4.312;2023-06-22T05:00:30;20.90;99.90
22112;DHT22;11222;50.872;4.312;2023-06-22T05:02:56;21.10;99.90
22112;DHT22;11222;50.872;4.312;2023-06-22T05:05:23;21.10;99.90
22112;DHT22;11222;50.872;4.312;2023-06-22T05:07:50;21.20;99.90
22112;DHT22;11222;50.872;4.312;2023-06-22T05:10:18;21.40;99.90
22112;DHT22;11222;50.872;4.312;2023-06-22T05:12:45;21.60;99.90
22112;DHT22;11222;50.872;4.312;2023-06-22T05:15:11;21.50;99.90
22112;DHT22;11222;50.872;4.312;2023-06-22T05:17:37;21.60;99.90
22112;DHT22;11222;50.872;4.312;2023-06-22T05:20:11;21.60;99.90
22112;DHT22;11222;50.872;4.312;2023-06-22T05:22:41;21.70;99.90
22112;DHT22;11222;50.872;4.312;2023-06-22T05:25:09;21.70;99.90
22112;DHT22;11222;50.872;4.312;2023-06-22T05:27:35;21.50;99.90
22112;DHT22;11222;50.872;4.312;2023-06-22T05:30:08;21.40;99.90
22112;DHT22;11222;50.872;4.312;2023-06-22T05:32:34;21.30;99.90
22112;DHT22;11222;50.872;4.312;2023-06-22T05:35:00;21.30;99.90
22112;DHT22;11222;50.872;4.312;2023-06-22T05:37:26;21.10;99.90
22112;DHT22;11222;50.872;4.312;2023-06-22T05:39:52;21.20;99.90
22112;DHT22;11222;50.872;4.312;2023-06-22T05:42:18;21.00;99.90
22112;DHT22;11222;50.872;4.312;2023-06-22T05:44:43;21.10;99.90
22112;DHT22;11222;50.872;4.312;2023-06-22T05:47:09;21.30;99.90
22112;DHT22;11222;50.872;4.312;2023-06-22T05:49:35;21.30;99.90
22112;DHT22;11222;50.872;4.312;2023-06-22T05:52:00;21.30;99.90
22112;DHT22;11222;50.872;4.312;2023-06-22T05:54:29;21.10;99.90
22112;DHT22;11222;50.872;4.312;2023-06-22T05:56:55;20.90;99.90
22112;DHT22;11222;50.872;4.312;2023-06-22T05:59:21;20.80;99.90
22112;DHT22;11222;50.872;4.312;2023-06-22T06:01:46;20.90;99.90
22112;DHT22;11222;50.872;4.312;2023-06-22T06:04:19;20.90;99.90
22112;DHT22;11222;50.872;4.312;2023-06-22T06:06:45;20.90;99.90
22112;DHT22;11222;50.872;4.312;2023-06-22T06:09:13;20.90;99.90
22112;DHT22;11222;50.872;4.312;2023-06-22T06:11:39;20.90;99.90
22112;DHT22;11222;50.872;4.312;2023-06-22T06:14:04;20.90;99.90
22112;DHT22;11222;50.872;4.312;2023-06-22T06:16:30;20.90;99.90
22112;DHT22;11222;50.872;4.312;2023-06-22T06:18:55;20.90;99.90
22112;DHT22;11222;50.872;4.312;2023-06-22T06:21:22;20.80;99.90
22112;DHT22;11222;50.872;4.312;2023-06-22T06:23:47;20.80;99.90
22112;DHT22;11222;50.872;4.312;2023-06-22T06:26:13;20.80;99.90
22112;DHT22;11222;50.872;4.312;2023-06-22T06:28:42;20.70;99.90
22112;DHT22;11222;50.872;4.312;2023-06-22T06:31:07;20.80;99.90
22112;DHT22;11222;50.872;4.312;2023-06-22T06:33:34;20.90;99.90
22112;DHT22;11222;50.872;4.312;2023-06-22T06:36:00;21.00;99.90
22112;DHT22;11222;50.872;4.312;2023-06-22T06:38:27;21.10;99.90
22112;DHT22;11222;50.872;4.312;2023-06-22T06:40:53;21.20;99.90
22112;DHT22;11222;50.872;4.312;2023-06-22T06:43:19;21.30;99.90
22112;DHT22;11222;50.872;4.312;2023-06-22T06:45:44;21.30;99.90
22112;DHT22;11222;50.872;4.312;2023-06-22T06:48:10;21.40;99.90
22112;DHT22;11222;50.872;4.312;2023-06-22T06:50:36;21.60;99.90
22112;DHT22;11222;50.872;4.312;2023-06-22T06:53:01;21.60;99.90
22112;DHT22;11222;50.872;4.312;2023-06-22T06:55:27;21.60;99.90
22112;DHT22;11222;50.872;4.312;2023-06-22T06:57:55;21.60;99.90
22112;DHT22;11222;50.872;4.312;2023-06-22T07:00:21;21.80;99.90
22112;DHT22;11222;50.872;4.312;2023-06-22T07:02:47;21.90;99.90
22112;DHT22;11222;50.872;4.312;2023-06-22T07:05:14;22.20;99.90
22112;DHT22;11222;50.872;4.312;2023-06-22T07:07:39;22.20;99.90
22112;DHT22;11222;50.872;4.312;2023-06-22T07:10:07;22.30;99.90
22112;DHT22;11222;50.872;4.312;2023-06-22T07:12:33;22.20;99.90
22112;DHT22;11222;50.872;4.312;2023-06-22T07:15:06;22.10;99.90
22112;DHT22;11222;50.872;4.312;2023-06-22T07:17:36;21.90;99.90
22112;DHT22;11222;50.872;4.312;2023-06-22T07:20:02;21.80;99.90
22112;DHT22;11222;50.872;4.312;2023-06-22T07:22:33;21.80;99.90
22112;DHT22;11222;50.872;4.312;2023-06-22T07:24:58;21.80;99.90
22112;DHT22;11222;50.872;4.312;2023-06-22T07:27:24;21.90;99.90
22112;DHT22;11222;50.872;4.312;2023-06-22T07:29:50;21.90;99.90
22112;DHT22;11222;50.872;4.312;2023-06-22T07:32:16;21.90;99.90
22112;DHT22;11222;50.872;4.312;2023-06-22T07:34:42;22.00;99.90
22112;DHT22;11222;50.872;4.312;2023-06-22T07:37:08;22.10;99.90
22112;DHT22;11222;50.872;4.312;2023-06-22T07:39:33;22.10;99.90
22112;DHT22;11222;50.872;4.312;2023-06-22T07:41:59;22.10;99.90
22112;DHT22;11222;50.872;4.312;2023-06-22T07:44:25;22.10;99.90
22112;DHT22;11222;50.872;4.312;2023-06-22T07:46:50;22.10;99.90
22112;DHT22;11222;50.872;4.312;2023-06-22T07:49:17;22.30;99.90
22112;DHT22;11222;50.872;4.312;2023-06-22T07:51:43;22.30;99.90
22112;DHT22;11222;50.872;4.312;2023-06-22T07:54:09;21.90;99.90
22112;DHT22;11222;50.872;4.312;2023-06-22T07:56:36;21.90;99.90
22112;DHT22;11222;50.872;4.312;2023-06-22T07:59:02;22.00;99.90
22112;DHT22;11222;50.872;4.312;2023-06-22T08:01:29;22.10;99.90
22112;DHT22;11222;50.872;4.312;2023-06-22T08:03:55;22.30;99.90
22112;DHT22;11222;50.872;4.312;2023-06-22T08:06:20;22.40;99.90
22112;DHT22;11222;50.872;4.312;2023-06-22T08:08:46;22.20;99.90
22112;DHT22;11222;50.872;4.312;2023-06-22T08:11:14;22.20;99.90
22112;DHT22;11222;50.872;4.312;2023-06-22T08:13:39;22.10;99.90
22112;DHT22;11222;50.872;4.312;2023-06-22T08:16:05;22.10;99.90
22112;DHT22;11222;50.872;4.312;2023-06-22T08:18:32;21.90;99.90
22112;DHT22;11222;50.872;4.312;2023-06-22T08:20:58;21.90;99.90
22112;DHT22;11222;50.872;4.312;2023-06-22T08:23:24;22.00;99.90
22112;DHT22;11222;50.872;4.312;2023-06-22T08:25:49;22.10;99.90
22112;DHT22;11222;50.872;4.312;2023-06-22T08:28:15;22.20;99.90
22112;DHT22;11222;50.872;4.312;2023-06-22T08:30:41;22.20;99.90
22112;DHT22;11222;50.872;4.312;2023-06-22T08:33:07;22.10;99.90
22112;DHT22;11222;50.872;4.312;2023-06-22T08:35:33;21.90;99.90
22112;DHT22;11222;50.872;4.312;2023-06-22T08:37:58;21.90;99.90
22112;DHT22;11222;50.872;4.312;2023-06-22T08:40:25;21.90;99.90
22112;DHT22;11222;50.872;4.312;2023-06-22T08:42:51;21.90;99.90
22112;DHT22;11222;50.872;4.312;2023-06-22T08:45:17;22.00;99.90
22112;DHT22;11222;50.872;4.312;2023-06-22T08:47:42;22.00;99.90
22112;DHT22;11222;50.872;4.312;2023-06-22T08:50:09;22.00;99.90
22112;DHT22;11222;50.872;4.312;2023-06-22T08:52:36;21.90;99.90
22112;DHT22;11222;50.872;4.312;2023-06-22T08:55:03;21.70;99.90
22112;DHT22;11222;50.872;4.312;2023-06-22T08:57:28;21.80;99.90
22112;DHT22;11222;50.872;4.312;2023-06-22T08:59:55;21.80;99.90
22112;DHT22;11222;50.872;4.312;2023-06-22T09:02:24;22.00;99.90
22112;DHT22;11222;50.872;4.312;2023-06-22T09:04:50;22.10;99.90
22112;DHT22;11222;50.872;4.312;2023-06-22T09:07:23;22.00;99.90
22112;DHT22;11222;50.872;4.312;2023-06-22T09:09:50;22.00;99.90
22112;DHT22;11222;50.872;4.312;2023-06-22T09:12:16;22.10;99.90
22112;DHT22;11222;50.872;4.312;2023-06-22T09:14:42;22.20;99.90
22112;DHT22;11222;50.872;4.312;2023-06-22T09:17:08;22.20;99.90
22112;DHT22;11222;50.872;4.312;2023-06-22T09:19:34;22.10;99.90
22112;DHT22;11222;50.872;4.312;2023-06-22T09:22:00;22.20;99.90
22112;DHT22;11222;50.872;4.312;2023-06-22T09:24:26;22.20;99.90
22112;DHT22;11222;50.872;4.312;2023-06-22T09:26:51;22.30;99.90
22112;DHT22;11222;50.872;4.312;2023-06-22T09:29:17;22.20;99.90
22112;DHT22;11222;50.872;4.312;2023-06-22T09:31:43;22.20;99.90
22112;DHT22;11222;50.872;4.312;2023-06-22T09:34:09;22.20;99.90
22112;DHT22;11222;50.872;4.312;2023-06-22T09:36:35;22.30;99.90
22112;DHT22;11222;50.872;4.312;2023-06-22T09:39:01;22.20;99.90
22112;DHT22;11222;50.872;4.312;2023-06-22T09:41:31;22.00;99.90
22112;DHT22;11222;50.872;4.312;2023-06-22T09:43:57;21.80;99.90
22112;DHT22;11222;50.872;4.312;2023-06-22T09:46:22;21.80;99.90
22112;DHT22;11222;50.872;4.312;2023-06-22T09:48:50;22.00;99.90
22112;DHT22;11222;50.872;4.312;2023-06-22T09:51:16;22.00;99.90
22112;DHT22;11222;50.872;4.312;2023-06-22T09:53:42;21.90;99.90
22112;DHT22;11222;50.872;4.312;2023-06-22T09:56:09;21.80;99.90
22112;DHT22;11222;50.872;4.312;2023-06-22T09:58:41;21.60;99.90
22112;DHT22;11222;50.872;4.312;2023-06-22T10:01:07;21.40;99.90
22112;DHT22;11222;50.872;4.312;2023-06-22T10:03:32;21.10;99.90
22112;DHT22;11222;50.872;4.312;2023-06-22T10:05:58;20.70;99.90
22112;DHT22;11222;50.872;4.312;2023-06-22T10:08:23;20.00;99.90
22112;DHT22;11222;50.872;4.312;2023-06-22T10:10:49;19.80;99.90
22112;DHT22;11222;50.872;4.312;2023-06-22T10:13:15;19.60;99.90
22112;DHT22;11222;50.872;4.312;2023-06-22T10:15:41;19.40;99.90
22112;DHT22;11222;50.872;4.312;2023-06-22T10:18:07;19.30;99.90
22112;DHT22;11222;50.872;4.312;2023-06-22T10:20:33;19.10;99.90
22112;DHT22;11222;50.872;4.312;2023-06-22T10:22:58;19.00;99.90
22112;DHT22;11222;50.872;4.312;2023-06-22T10:25:24;19.00;99.90
22112;DHT22;11222;50.872;4.312;2023-06-22T10:27:50;19.10;99.90
22112;DHT22;11222;50.872;4.312;2023-06-22T10:30:16;19.10;99.90
22112;DHT22;11222;50.872;4.312;2023-06-22T10:32:42;19.10;99.90
22112;DHT22;11222;50.872;4.312;2023-06-22T10:35:09;19.10;99.90
22112;DHT22;11222;50.872;4.312;2023-06-22T10:37:42;19.10;99.90
22112;DHT22;11222;50.872;4.312;2023-06-22T10:40:08;18.90;99.90
22112;DHT22;11222;50.872;4.312;2023-06-22T10:42:34;18.80;99.90
22112;DHT22;11222;50.872;4.312;2023-06-22T10:45:00;18.90;99.90
22112;DHT22;11222;50.872;4.312;2023-06-22T10:47:26;18.90;99.90
22112;DHT22;11222;50.872;4.312;2023-06-22T10:49:52;19.00;99.90
22112;DHT22;11222;50.872;4.312;2023-06-22T10:52:17;19.10;99.90
22112;DHT22;11222;50.872;4.312;2023-06-22T10:54:43;19.10;99.90
22112;DHT22;11222;50.872;4.312;2023-06-22T10:57:08;19.20;99.90
22112;DHT22;11222;50.872;4.312;2023-06-22T10:59:34;19.40;99.90
22112;DHT22;11222;50.872;4.312;2023-06-22T11:02:00;19.40;99.90
22112;DHT22;11222;50.872;4.312;2023-06-22T11:04:26;19.50;99.90
22112;DHT22;11222;50.872;4.312;2023-06-22T11:06:51;19.60;99.90
22112;DHT22;11222;50.872;4.312;2023-06-22T11:09:17;19.60;99.90
22112;DHT22;11222;50.872;4.312;2023-06-22T11:11:50;19.60;99.90
22112;DHT22;11222;50.872;4.312;2023-06-22T11:14:19;19.80;99.90
22112;DHT22;11222;50.872;4.312;2023-06-22T11:16:45;19.80;99.90
22112;DHT22;11222;50.872;4.312;2023-06-22T11:19:12;19.70;99.90
22112;DHT22;11222;50.872;4.312;2023-06-22T11:21:38;19.80;99.90
22112;DHT22;11222;50.872;4.312;2023-06-22T11:24:03;19.90;99.90
22112;DHT22;11222;50.872;4.312;2023-06-22T11:26:29;19.80;99.90
22112;DHT22;11222;50.872;4.312;2023-06-22T11:28:55;19.80;99.90
22112;DHT22;11222;50.872;4.312;2023-06-22T11:31:21;19.70;99.90
22112;DHT22;11222;50.872;4.312;2023-06-22T11:33:46;19.50;99.90
22112;DHT22;11222;50.872;4.312;2023-06-22T11:36:13;19.40;99.90
22112;DHT22;11222;50.872;4.312;2023-06-22T11:38:39;19.40;99.90
22112;DHT22;11222;50.872;4.312;2023-06-22T11:41:06;19.50;99.90
22112;DHT22;11222;50.872;4.312;2023-06-22T11:43:33;19.30;99.90
22112;DHT22;11222;50.872;4.312;2023-06-22T11:45:59;19.20;99.90
22112;DHT22;11222;50.872;4.312;2023-06-22T11:48:25;19.40;99.90
22112;DHT22;11222;50.872;4.312;2023-06-22T11:50:50;19.30;99.90
22112;DHT22;11222;50.872;4.312;2023-06-22T11:53:16;19.30;99.90
22112;DHT22;11222;50.872;4.312;2023-06-22T11:55:44;19.50;99.90
22112;DHT22;11222;50.872;4.312;2023-06-22T11:58:09;19.60;99.90
22112;DHT22;11222;50.872;4.312;2023-06-22T12:00:37;19.70;99.90
22112;DHT22;11222;50.872;4.312;2023-06-22T12:03:03;19.80;99.90
22112;DHT22;11222;50.872;4.312;2023-06-22T12:05:28;19.70;99.90
22112;DHT22;11222;50.872;4.312;2023-06-22T12:07:54;19.80;99.90
22112;DHT22;11222;50.872;4.312;2023-06-22T12:10:21;19.80;99.90
22112;DHT22;11222;50.872;4.312;2023-06-22T12:12:47;19.90;99.90
22112;DHT22;11222;50.872;4.312;2023-06-22T12:15:12;19.70;99.90
22112;DHT22;11222;50.872;4.312;2023-06-22T12:17:38;19.80;99.90
22112;DHT22;11222;50.872;4.312;2023-06-22T12:20:05;19.80;99.90
22112;DHT22;11222;50.872;4.312;2023-06-22T12:22:34;19.80;99.90
22112;DHT22;11222;50.872;4.312;2023-06-22T12:25:00;19.90;99.90
22112;DHT22;11222;50.872;4.312;2023-06-22T12:27:26;19.90;99.90
22112;DHT22;11222;50.872;4.312;2023-06-22T12:29:51;19.90;99.90
22112;DHT22;11222;50.872;4.312;2023-06-22T12:32:17;19.80;99.90
22112;DHT22;11222;50.872;4.312;2023-06-22T12:34:43;19.90;99.90
22112;DHT22;11222;50.872;4.312;2023-06-22T12:37:10;20.00;99.90
22112;DHT22;11222;50.872;4.312;2023-06-22T12:39:36;20.00;99.90
22112;DHT22;11222;50.872;4.312;2023-06-22T12:42:02;20.00;99.90
22112;DHT22;11222;50.872;4.312;2023-06-22T12:44:28;19.90;99.90
22112;DHT22;11222;50.872;4.312;2023-06-22T12:46:54;19.90;99.90
22112;DHT22;11222;50.872;4.312;2023-06-22T12:49:20;19.90;99.90
22112;DHT22;11222;50.872;4.312;2023-06-22T12:51:45;19.80;99.90
22112;DHT22;11222;50.872;4.312;2023-06-22T12:54:11;19.60;99.90
22112;DHT22;11222;50.872;4.312;2023-06-22T12:56:38;19.60;99.90
22112;DHT22;11222;50.872;4.312;2023-06-22T12:59:04;19.50;99.90
22112;DHT22;11222;50.872;4.312;2023-06-22T13:01:31;19.60;99.90
22112;DHT22;11222;50.872;4.312;2023-06-22T13:03:58;19.50;99.90
22112;DHT22;11222;50.872;4.312;2023-06-22T13:06:24;19.60;99.90
22112;DHT22;11222;50.872;4.312;2023-06-22T13:08:50;19.50;99.90
22112;DHT22;11222;50.872;4.312;2023-06-22T13:11:15;19.50;99.90
22112;DHT22;11222;50.872;4.312;2023-06-22T13:13:41;19.50;99.90
22112;DHT22;11222;50.872;4.312;2023-06-22T13:16:07;19.40;99.90
22112;DHT22;11222;50.872;4.312;2023-06-22T13:18:33;19.40;99.90
22112;DHT22;11222;50.872;4.312;2023-06-22T13:21:01;19.40;99.90
22112;DHT22;11222;50.872;4.312;2023-06-22T13:23:27;19.50;99.90
22112;DHT22;11222;50.872;4.312;2023-06-22T13:25:52;19.30;99.90
22112;DHT22;11222;50.872;4.312;2023-06-22T13:28:18;19.40;99.90
22112;DHT22;11222;50.872;4.312;2023-06-22T13:30:47;19.30;99.90
22112;DHT22;11222;50.872;4.312;2023-06-22T13:33:13;19.10;99.90
22112;DHT22;11222;50.872;4.312;2023-06-22T13:35:39;18.90;99.90
22112;DHT22;11222;50.872;4.312;2023-06-22T13:38:08;18.90;99.90
22112;DHT22;11222;50.872;4.312;2023-06-22T13:40:34;18.90;99.90
22112;DHT22;11222;50.872;4.312;2023-06-22T13:43:00;19.00;99.90
22112;DHT22;11222;50.872;4.312;2023-06-22T13:45:26;19.00;99.90
22112;DHT22;11222;50.872;4.312;2023-06-22T13:47:52;19.00;99.90
22112;DHT22;11222;50.872;4.312;2023-06-22T13:50:18;19.00;99.90
22112;DHT22;11222;50.872;4.312;2023-06-22T13:52:43;19.10;99.90
22112;DHT22;11222;50.872;4.312;2023-06-22T13:55:09;18.90;99.90
22112;DHT22;11222;50.872;4.312;2023-06-22T13:57:35;19.00;99.90
22112;DHT22;11222;50.872;4.312;2023-06-22T14:00:02;19.00;99.90
22112;DHT22;11222;50.872;4.312;2023-06-22T14:02:30;19.00;99.90
22112;DHT22;11222;50.872;4.312;2023-06-22T14:04:55;19.00;99.90
22112;DHT22;11222;50.872;4.312;2023-06-22T14:07:21;18.90;99.90
22112;DHT22;11222;50.872;4.312;2023-06-22T14:09:47;18.90;99.90
22112;DHT22;11222;50.872;4.312;2023-06-22T14:12:13;19.00;99.90
22112;DHT22;11222;50.872;4.312;2023-06-22T14:14:38;19.00;99.90
22112;DHT22;11222;50.872;4.312;2023-06-22T14:17:05;19.10;99.90
22112;DHT22;11222;50.872;4.312;2023-06-22T14:19:31;18.90;99.90
22112;DHT22;11222;50.872;4.312;2023-06-22T14:21:56;18.90;99.90
22112;DHT22;11222;50.872;4.312;2023-06-22T14:24:23;18.90;99.90
22112;DHT22;11222;50.872;4.312;2023-06-22T14:26:49;19.00;99.90
22112;DHT22;11222;50.872;4.312;2023-06-22T14:29:14;18.90;99.90
22112;DHT22;11222;50.872;4.312;2023-06-22T14:31:40;19.00;99.90
22112;DHT22;11222;50.872;4.312;2023-06-22T14:34:06;18.80;99.90
22112;DHT22;11222;50.872;4.312;2023-06-22T14:36:32;18.90;99.90
22112;DHT22;11222;50.872;4.312;2023-06-22T14:38:57;18.90;99.90
22112;DHT22;11222;50.872;4.312;2023-06-22T14:41:23;19.00;99.90
22112;DHT22;11222;50.872;4.312;2023-06-22T14:43:52;19.10;99.90
22112;DHT22;11222;50.872;4.312;2023-06-22T14:46:18;19.10;99.90
22112;DHT22;11222;50.872;4.312;2023-06-22T14:48:44;19.20;99.90
22112;DHT22;11222;50.872;4.312;2023-06-22T14:51:11;19.20;99.90
22112;DHT22;11222;50.872;4.312;2023-06-22T14:53:37;19.10;99.90
22112;DHT22;11222;50.872;4.312;2023-06-22T14:56:03;19.20;99.90
22112;DHT22;11222;50.872;4.312;2023-06-22T14:58:30;19.20;99.90
22112;DHT22;11222;50.872;4.312;2023-06-22T15:00:59;19.30;99.90
22112;DHT22;11222;50.872;4.312;2023-06-22T15:03:25;19.30;99.90
22112;DHT22;11222;50.872;4.312;2023-06-22T15:05:54;19.30;99.90
22112;DHT22;11222;50.872;4.312;2023-06-22T15:08:20;19.30;99.90
22112;DHT22;11222;50.872;4.312;2023-06-22T15:10:46;19.40;99.90
22112;DHT22;11222;50.872;4.312;2023-06-22T15:13:12;19.40;99.90
22112;DHT22;11222;50.872;4.312;2023-06-22T15:15:38;19.40;99.90
22112;DHT22;11222;50.872;4.312;2023-06-22T15:18:03;19.50;99.90
22112;DHT22;11222;50.872;4.312;2023-06-22T15:20:29;19.40;99.90
22112;DHT22;11222;50.872;4.312;2023-06-22T15:22:56;19.40;99.90
22112;DHT22;11222;50.872;4.312;2023-06-22T15:25:21;19.40;99.90
22112;DHT22;11222;50.872;4.312;2023-06-22T15:27:47;19.40;99.90
22112;DHT22;11222;50.872;4.312;2023-06-22T15:30:13;19.50;99.90
22112;DHT22;11222;50.872;4.312;2023-06-22T15:32:38;19.60;99.90